createdAt,value
2017-09-11T00:00:59.531Z,96971.68
2017-09-11T00:03:27.848Z,96969.14
2017-09-11T00:05:57.169Z,96958.16
2017-09-11T00:08:26.303Z,96959.91
2017-09-11T00:10:54.631Z,96949.34
2017-09-11T00:13:23.011Z,96948.38
2017-09-11T00:15:51.342Z,96939.80
2017-09-11T00:18:20.629Z,96937.63
2017-09-11T00:21:40.376Z,96929.78
2017-09-11T00:24:08.727Z,96928.52
2017-09-11T00:26:37.149Z,96928.22
2017-09-11T00:29:05.486Z,96926.50
2017-09-11T00:31:33.814Z,96925.30
2017-09-11T00:34:02.904Z,96928.13
2017-09-11T00:36:31.292Z,96922.13
2017-09-11T00:38:59.607Z,96913.67
2017-09-11T00:41:27.945Z,96904.09
2017-09-11T00:43:57.077Z,96905.35
2017-09-11T00:46:25.438Z,96905.19
2017-09-11T00:48:53.792Z,96900.72
2017-09-11T00:51:22.134Z,96906.37
2017-09-11T00:53:50.466Z,96905.46
2017-09-11T00:56:19.618Z,96897.84
2017-09-11T00:58:47.939Z,96896.63
2017-09-11T01:01:17.179Z,96896.18
2017-09-11T01:03:45.517Z,96889.28
2017-09-11T01:06:14.688Z,96883.83
2017-09-11T01:08:43.030Z,96883.19
2017-09-11T01:11:11.379Z,96881.16
2017-09-11T01:13:40.579Z,96884.88
2017-09-11T01:16:09.675Z,96873.86
2017-09-11T01:18:38.765Z,96871.48
2017-09-11T01:21:07.108Z,96866.24
2017-09-11T01:23:35.429Z,96868.91
2017-09-11T01:26:04.023Z,96855.97
2017-09-11T01:28:32.370Z,96851.02
2017-09-11T01:31:00.684Z,96842.12
2017-09-11T01:33:29.042Z,96838.27
2017-09-11T01:35:58.141Z,96837.09
2017-09-11T01:38:27.267Z,96835.05
2017-09-11T01:40:55.589Z,96832.81
2017-09-11T01:43:25.100Z,96830.89
2017-09-11T01:45:53.414Z,96826.89
2017-09-11T01:48:22.509Z,96825.46
2017-09-11T01:50:50.836Z,96818.77
2017-09-11T01:53:19.204Z,96814.66
2017-09-11T01:55:48.300Z,96815.49
2017-09-11T01:58:17.375Z,96816.02
2017-09-11T02:00:45.705Z,96813.70
2017-09-11T02:03:14.041Z,96813.38
2017-09-11T02:05:42.356Z,96812.61
2017-09-11T02:08:10.713Z,96803.69
2017-09-11T02:10:39.109Z,96808.03
2017-09-11T02:13:07.546Z,96803.41
2017-09-11T02:15:35.915Z,96809.42
2017-09-11T02:18:05.313Z,96806.44
2017-09-11T02:20:33.631Z,96799.94
2017-09-11T02:23:01.969Z,96800.93
2017-09-11T02:25:31.066Z,96796.19
2017-09-11T02:28:00.259Z,96795.79
2017-09-11T02:30:29.398Z,96803.45
2017-09-11T02:32:57.725Z,96790.76
2017-09-11T02:35:26.073Z,96793.09
2017-09-11T02:37:54.394Z,96796.56
2017-09-11T02:40:23.537Z,96790.88
2017-09-11T02:42:51.880Z,96784.13
2017-09-11T02:45:20.218Z,96785.52
2017-09-11T02:47:48.543Z,96776.28
2017-09-11T02:50:17.641Z,96780.33
2017-09-11T02:52:46.239Z,96786.09
2017-09-11T02:55:14.582Z,96786.89
2017-09-11T02:57:42.918Z,96771.22
2017-09-11T03:00:12.158Z,96772.02
2017-09-11T03:02:40.492Z,96776.33
2017-09-11T03:05:08.843Z,96770.37
2017-09-11T03:07:37.930Z,96779.13
2017-09-11T03:10:06.267Z,96773.70
2017-09-11T03:12:34.607Z,96775.12
2017-09-11T03:15:02.956Z,96763.09
2017-09-11T03:17:31.305Z,96771.58
2017-09-11T03:19:59.633Z,96768.77
2017-09-11T03:22:28.030Z,96760.86
2017-09-11T03:24:56.380Z,96758.97
2017-09-11T03:27:25.488Z,96752.00
2017-09-11T03:29:53.798Z,96749.89
2017-09-11T03:32:22.130Z,96741.36
2017-09-11T03:34:50.536Z,96741.25
2017-09-11T03:37:18.945Z,96742.96
2017-09-11T03:39:47.297Z,96734.28
2017-09-11T03:42:15.624Z,96737.13
2017-09-11T03:44:44.240Z,96732.16
2017-09-11T03:47:12.563Z,96734.20
2017-09-11T03:49:40.878Z,96723.83
2017-09-11T03:52:09.211Z,96724.04
2017-09-11T03:54:37.528Z,96725.90
2017-09-11T03:57:05.965Z,96724.30
2017-09-11T03:59:34.317Z,96720.94
2017-09-11T04:02:03.428Z,96717.73
2017-09-11T04:04:31.752Z,96713.91
2017-09-11T04:07:00.093Z,96711.58
2017-09-11T04:09:28.434Z,96707.78
2017-09-11T04:11:56.839Z,96700.34
2017-09-11T04:14:25.949Z,96704.98
2017-09-11T04:16:54.257Z,96691.38
2017-09-11T04:19:22.619Z,96690.25
2017-09-11T04:21:51.639Z,96684.99
2017-09-11T04:24:19.983Z,96680.77
2017-09-11T04:26:48.324Z,96683.25
2017-09-11T04:29:16.647Z,96675.23
2017-09-11T04:31:48.680Z,96671.33
2017-09-11T04:34:17.014Z,96670.16
2017-09-11T04:36:45.953Z,96669.28
2017-09-11T04:39:14.275Z,96669.67
2017-09-11T04:41:42.604Z,96675.98
2017-09-11T04:44:10.938Z,96675.55
2017-09-11T04:46:40.031Z,96670.74
2017-09-11T04:49:08.374Z,96666.47
2017-09-11T04:51:37.480Z,96657.17
2017-09-11T04:54:06.558Z,96661.47
2017-09-11T04:56:35.065Z,96663.36
2017-09-11T04:59:03.404Z,96666.80
2017-09-11T05:01:31.742Z,96668.52
2017-09-11T05:04:00.098Z,96658.72
2017-09-11T05:06:28.423Z,96655.83
2017-09-11T05:08:56.781Z,96647.23
2017-09-11T05:11:25.126Z,96648.34
2017-09-11T05:13:53.476Z,96654.50
2017-09-11T05:16:21.825Z,96655.19
2017-09-11T05:18:51.398Z,96659.08
2017-09-11T05:21:20.499Z,96653.14
2017-09-11T05:23:48.832Z,96659.16
2017-09-11T05:26:17.559Z,96660.66
2017-09-11T05:28:45.892Z,96665.94
2017-09-11T05:31:14.230Z,96661.56
2017-09-11T05:33:42.569Z,96663.28
2017-09-11T05:36:10.881Z,96660.03
2017-09-11T05:38:39.261Z,96655.08
2017-09-11T05:41:07.575Z,96658.34
2017-09-11T05:43:35.906Z,96657.52
2017-09-11T05:46:04.248Z,96655.72
2017-09-11T05:48:32.576Z,96655.23
2017-09-11T05:51:01.706Z,96654.41
2017-09-11T05:53:30.036Z,96650.67
2017-09-11T05:55:59.129Z,96656.31
2017-09-11T05:58:27.501Z,96664.36
2017-09-11T06:00:55.833Z,96667.77
2017-09-11T06:03:24.173Z,96655.75
2017-09-11T06:05:52.491Z,96652.95
2017-09-11T06:08:20.847Z,96655.61
2017-09-11T06:10:49.963Z,96651.09
2017-09-11T06:13:18.294Z,96655.41
2017-09-11T06:15:46.607Z,96657.55
2017-09-11T06:18:14.962Z,96648.75
2017-09-11T06:20:44.047Z,96650.04
2017-09-11T06:23:12.393Z,96653.01
2017-09-11T06:25:40.742Z,96648.73
2017-09-11T06:28:09.073Z,96645.23
2017-09-11T06:30:37.404Z,96650.63
2017-09-11T06:33:05.721Z,96657.35
2017-09-11T06:35:34.078Z,96654.98
2017-09-11T06:38:02.424Z,96656.03
2017-09-11T06:40:30.735Z,96658.41
2017-09-11T06:42:59.073Z,96655.34
2017-09-11T06:45:28.169Z,96654.52
2017-09-11T06:47:56.771Z,96649.28
2017-09-11T06:50:25.858Z,96653.01
2017-09-11T06:52:54.183Z,96657.52
2017-09-11T06:55:22.516Z,96659.03
2017-09-11T06:57:51.603Z,96658.20
2017-09-11T07:00:20.297Z,96661.94
2017-09-11T07:02:48.620Z,96661.52
2017-09-11T07:05:16.961Z,96675.00
2017-09-11T07:07:46.077Z,96677.34
2017-09-11T07:10:14.415Z,96678.66
2017-09-11T07:15:55.298Z,96674.69
2017-09-11T07:18:23.675Z,96676.53
2017-09-11T07:20:51.991Z,96681.85
2017-09-11T07:23:20.580Z,96681.36
2017-09-11T07:25:48.891Z,96682.42
2017-09-11T07:28:17.216Z,96688.98
2017-09-11T07:30:45.560Z,96685.35
2017-09-11T07:33:13.888Z,96695.38
2017-09-11T07:35:42.240Z,96696.69
2017-09-11T07:38:10.579Z,96703.46
2017-09-11T07:40:38.934Z,96711.64
2017-09-11T07:43:07.266Z,96703.45
2017-09-11T07:45:35.612Z,96712.86
2017-09-11T07:48:03.966Z,96712.41
2017-09-11T07:50:33.069Z,96715.55
2017-09-11T07:53:01.407Z,96722.95
2017-09-11T07:55:29.732Z,96717.99
2017-09-11T07:57:58.073Z,96727.65
2017-09-11T08:00:26.412Z,96726.74
2017-09-11T08:02:54.757Z,96733.23
2017-09-11T08:05:23.120Z,96739.00
2017-09-11T08:07:51.456Z,96737.88
2017-09-11T08:10:19.793Z,96737.39
2017-09-11T08:12:48.889Z,96739.45
2017-09-11T08:15:18.020Z,96741.13
2017-09-11T08:17:46.350Z,96744.95
2017-09-11T08:20:14.746Z,96749.13
2017-09-11T08:22:43.861Z,96748.13
2017-09-11T08:25:12.205Z,96754.70
2017-09-11T08:27:40.543Z,96753.94
2017-09-11T08:30:08.867Z,96759.83
2017-09-11T08:32:37.472Z,96756.80
2017-09-11T08:35:05.790Z,96749.70
2017-09-11T08:37:34.126Z,96751.84
2017-09-11T08:40:02.460Z,96759.85
2017-09-11T08:42:30.778Z,96757.02
2017-09-11T08:44:59.875Z,96749.62
2017-09-11T08:47:28.191Z,96751.54
2017-09-11T08:49:56.542Z,96757.83
2017-09-11T08:52:25.654Z,96753.91
2017-09-11T08:54:53.981Z,96771.47
2017-09-11T08:57:22.323Z,96762.37
2017-09-11T08:59:50.655Z,96764.24
2017-09-11T09:02:19.451Z,96764.03
2017-09-11T09:04:47.791Z,96773.60
2017-09-11T09:07:16.107Z,96777.95
2017-09-11T09:09:45.231Z,96778.08
2017-09-11T09:12:13.574Z,96783.48
2017-09-11T09:14:41.971Z,96777.59
2017-09-11T09:17:10.293Z,96780.34
2017-09-11T09:19:38.654Z,96786.58
2017-09-11T09:22:06.983Z,96781.50
2017-09-11T09:24:35.500Z,96771.91
2017-09-11T09:27:03.833Z,96772.34
2017-09-11T09:29:32.173Z,96781.05
2017-09-11T09:32:00.520Z,96768.17
2017-09-11T09:34:28.855Z,96777.61
2017-09-11T09:36:57.219Z,96775.45
2017-09-11T09:39:25.548Z,96775.73
2017-09-11T09:41:53.884Z,96778.91
2017-09-11T09:44:22.257Z,96792.08
2017-09-11T09:46:50.578Z,96797.56
2017-09-11T09:49:18.931Z,96797.80
2017-09-11T09:51:47.271Z,96789.27
2017-09-11T09:54:16.662Z,96796.48
2017-09-11T09:56:44.992Z,96794.41
2017-09-11T09:59:13.320Z,96785.17
2017-09-11T10:01:42.432Z,96773.97
2017-09-11T10:04:10.835Z,96762.43
2017-09-11T10:06:39.216Z,96764.19
2017-09-11T10:09:07.531Z,96761.52
2017-09-11T10:11:36.244Z,96764.22
2017-09-11T10:14:04.600Z,96766.19
2017-09-11T10:16:32.941Z,96771.68
2017-09-11T10:19:01.290Z,96778.50
2017-09-11T10:21:30.375Z,96780.61
2017-09-11T10:23:58.701Z,96782.05
2017-09-11T10:26:27.042Z,96782.91
2017-09-11T10:28:56.437Z,96770.03
2017-09-11T10:31:24.760Z,96791.92
2017-09-11T10:33:53.095Z,96781.50
2017-09-11T10:36:22.199Z,96792.86
2017-09-11T10:38:50.524Z,96796.39
2017-09-11T10:41:18.871Z,96802.52
2017-09-11T10:43:47.966Z,96804.26
2017-09-11T10:46:16.311Z,96811.38
2017-09-11T10:48:44.641Z,96813.03
2017-09-11T10:51:13.051Z,96812.63
2017-09-11T10:53:41.380Z,96807.92
2017-09-11T10:56:10.471Z,96809.23
2017-09-11T10:58:39.592Z,96796.02
2017-09-11T11:01:07.928Z,96800.07
2017-09-11T11:03:36.270Z,96805.31
2017-09-11T11:06:04.635Z,96801.81
2017-09-11T11:08:32.980Z,96798.95
2017-09-11T11:11:01.337Z,96798.13
2017-09-11T11:13:29.681Z,96792.25
2017-09-11T11:15:58.062Z,96788.06
2017-09-11T11:18:26.388Z,96785.98
2017-09-11T11:20:54.739Z,96802.47
2017-09-11T11:23:23.143Z,96795.47
2017-09-11T11:25:51.470Z,96809.32
2017-09-11T11:28:19.803Z,96817.59
2017-09-11T11:30:48.135Z,96821.70
2017-09-11T11:33:16.486Z,96827.37
2017-09-11T11:35:45.564Z,96839.48
2017-09-11T11:38:13.915Z,96837.66
2017-09-11T11:40:42.258Z,96844.48
2017-09-11T11:43:10.617Z,96832.27
2017-09-11T11:45:38.958Z,96840.81
2017-09-11T11:48:07.294Z,96841.42
2017-09-11T11:50:35.646Z,96852.70
2017-09-11T11:53:05.497Z,96849.24
2017-09-11T11:55:34.380Z,96852.52
2017-09-11T11:58:02.704Z,96854.23
2017-09-11T12:00:31.044Z,96856.06
2017-09-11T12:02:59.405Z,96857.49
2017-09-11T12:05:28.508Z,96862.02
2017-09-11T12:07:56.861Z,96859.71
2017-09-11T12:10:25.186Z,96865.22
2017-09-11T12:12:53.538Z,96860.94
2017-09-11T12:15:22.660Z,96860.62
2017-09-11T12:17:51.029Z,96852.56
2017-09-11T12:20:19.364Z,96851.98
2017-09-11T12:22:47.683Z,96850.88
2017-09-11T12:25:16.029Z,96846.97
2017-09-11T12:27:44.365Z,96839.49
2017-09-11T12:30:13.617Z,96841.73
2017-09-11T12:32:41.960Z,96849.94
2017-09-11T12:35:11.064Z,96862.10
2017-09-11T12:37:39.408Z,96873.55
2017-09-11T12:40:07.753Z,96867.81
2017-09-11T12:42:36.101Z,96855.48
2017-09-11T12:45:04.432Z,96853.69
2017-09-11T12:47:33.106Z,96848.22
2017-09-11T12:50:01.421Z,96841.01
2017-09-11T12:52:29.753Z,96836.83
2017-09-11T12:54:59.138Z,96836.06
2017-09-11T12:57:27.460Z,96831.64
2017-09-11T12:59:55.816Z,96835.09
2017-09-11T13:02:24.210Z,96828.09
2017-09-11T13:04:53.340Z,96821.88
2017-09-11T13:07:21.688Z,96828.23
2017-09-11T13:09:50.026Z,96826.26
2017-09-11T13:12:18.379Z,96835.00
2017-09-11T13:14:46.691Z,96822.55
2017-09-11T13:17:15.404Z,96833.94
2017-09-11T13:19:44.500Z,96828.38
2017-09-11T13:22:12.853Z,96832.36
2017-09-11T13:24:41.174Z,96820.19
2017-09-11T13:27:09.524Z,96832.34
2017-09-11T13:29:38.244Z,96821.61
2017-09-11T13:32:06.586Z,96837.37
2017-09-11T13:34:34.950Z,96826.38
2017-09-11T13:37:03.274Z,96840.16
2017-09-11T13:39:32.651Z,96832.75
2017-09-11T13:42:01.880Z,96824.92
2017-09-11T13:44:30.223Z,96836.45
2017-09-11T13:46:58.578Z,96839.35
2017-09-11T13:49:27.001Z,96831.56
2017-09-11T13:51:55.349Z,96842.01
2017-09-11T13:54:23.689Z,96830.09
2017-09-11T13:56:52.338Z,96824.42
2017-09-11T13:59:20.655Z,96830.63
2017-09-11T14:01:48.993Z,96833.80
2017-09-11T14:04:17.438Z,96819.50
2017-09-11T14:06:45.773Z,96838.95
2017-09-11T14:09:14.893Z,96839.73
2017-09-11T14:11:43.233Z,96840.15
2017-09-11T14:14:11.601Z,96835.77
2017-09-11T14:16:39.907Z,96849.55
2017-09-11T14:19:09.022Z,96855.83
2017-09-11T14:21:37.355Z,96862.70
2017-09-11T14:24:05.679Z,96857.92
2017-09-11T14:26:34.431Z,96846.81
2017-09-11T14:29:02.759Z,96843.36
2017-09-11T14:31:31.081Z,96854.52
2017-09-11T14:33:59.419Z,96848.62
2017-09-11T14:36:27.732Z,96850.54
2017-09-11T14:38:56.584Z,96848.82
2017-09-11T14:41:25.019Z,96857.21
2017-09-11T14:43:53.334Z,96855.55
2017-09-11T14:46:21.693Z,96849.47
2017-09-11T14:48:50.805Z,96849.78
2017-09-11T14:51:19.180Z,96849.19
2017-09-11T14:53:48.281Z,96862.10
2017-09-11T14:56:16.961Z,96889.03
2017-09-11T14:58:46.052Z,96917.43
2017-09-11T15:01:15.233Z,96915.73
2017-09-11T15:03:43.604Z,96918.92
2017-09-11T15:06:11.954Z,96917.68
2017-09-11T15:08:40.285Z,96914.71
2017-09-11T15:11:08.625Z,96919.08
2017-09-11T15:13:36.984Z,96925.23
2017-09-11T15:16:05.356Z,96925.42
2017-09-11T15:18:33.710Z,96906.61
2017-09-11T15:21:02.822Z,96912.44
2017-09-11T15:23:31.742Z,96900.25
2017-09-11T15:26:00.840Z,96908.84
2017-09-11T15:28:29.182Z,96904.20
2017-09-11T15:30:57.527Z,96906.54
2017-09-11T15:33:25.869Z,96906.86
2017-09-11T15:35:54.195Z,96910.72
2017-09-11T15:38:22.555Z,96908.67
2017-09-11T15:40:50.893Z,96908.48
2017-09-11T15:43:19.239Z,96910.04
2017-09-11T15:45:47.567Z,96911.73
2017-09-11T15:48:16.212Z,96911.67
2017-09-11T15:50:44.554Z,96908.41
2017-09-11T15:53:12.901Z,96906.65
2017-09-11T15:55:41.275Z,96908.58
2017-09-11T15:58:09.599Z,96905.57
2017-09-11T16:00:38.301Z,96911.11
2017-09-11T16:03:06.635Z,96908.12
2017-09-11T16:05:34.993Z,96907.16
2017-09-11T16:08:03.345Z,96906.77
2017-09-11T16:10:32.518Z,96917.66
2017-09-11T16:13:00.881Z,96924.05
2017-09-11T16:15:29.208Z,96931.11
2017-09-11T16:17:57.571Z,96944.48
2017-09-11T16:20:25.903Z,96952.16
2017-09-11T16:22:54.279Z,96946.97
2017-09-11T16:25:22.628Z,96946.14
2017-09-11T16:27:51.749Z,96946.05
2017-09-11T16:30:20.102Z,96952.63
2017-09-11T16:32:49.199Z,96949.40
2017-09-11T16:35:17.902Z,96963.86
2017-09-11T16:37:46.237Z,96960.26
2017-09-11T16:40:15.965Z,96967.45
2017-09-11T16:42:44.318Z,96967.67
2017-09-11T16:45:12.653Z,96971.19
2017-09-11T16:47:41.315Z,96971.23
2017-09-11T16:50:09.682Z,96973.23
2017-09-11T16:52:37.999Z,96979.94
2017-09-11T16:55:06.387Z,96977.41
2017-09-11T16:57:35.471Z,96972.73
2017-09-11T17:00:04.569Z,96976.86
2017-09-11T17:02:33.665Z,96984.64
2017-09-11T17:05:03.042Z,96978.97
2017-09-11T17:07:31.377Z,96981.46
2017-09-11T17:09:59.696Z,96987.66
2017-09-11T17:12:28.060Z,96983.48
2017-09-11T17:14:56.417Z,96987.40
2017-09-11T17:17:24.809Z,96986.00
2017-09-11T17:19:53.153Z,96993.30
2017-09-11T17:22:22.035Z,96988.34
2017-09-11T17:24:51.149Z,96989.67
2017-09-11T17:27:19.470Z,96988.52
2017-09-11T17:29:47.834Z,96983.13
2017-09-11T17:32:16.174Z,96986.46
2017-09-11T17:34:45.304Z,96984.92
2017-09-11T17:37:14.060Z,96990.37
2017-09-11T17:39:42.419Z,96988.03
2017-09-11T17:42:11.557Z,96993.97
2017-09-11T17:44:39.899Z,96991.13
2017-09-11T17:47:08.252Z,96997.40
2017-09-11T17:49:36.584Z,96993.45
2017-09-11T17:52:04.941Z,96993.37
2017-09-11T17:54:34.759Z,96996.42
2017-09-11T17:57:03.117Z,97011.44
2017-09-11T17:59:31.464Z,97016.55
2017-09-11T18:01:59.783Z,97018.86
2017-09-11T18:04:28.131Z,97023.85
2017-09-11T18:06:56.494Z,97033.12
2017-09-11T18:09:25.854Z,97031.70
2017-09-11T18:11:54.182Z,97028.64
2017-09-11T18:14:22.518Z,97033.11
2017-09-11T18:16:51.625Z,97034.25
2017-09-11T18:19:19.966Z,97028.08
2017-09-11T18:21:48.315Z,97038.20
2017-09-11T18:24:16.667Z,97041.49
2017-09-11T18:26:45.443Z,97049.86
2017-09-11T18:29:14.054Z,97045.41
2017-09-11T18:31:42.398Z,97053.69
2017-09-11T18:34:11.516Z,97056.28
2017-09-11T18:36:39.835Z,97057.38
2017-09-11T18:39:08.180Z,97059.98
2017-09-11T18:41:36.610Z,97063.59
2017-09-11T18:44:04.991Z,97064.35
2017-09-11T18:46:33.342Z,97064.41
2017-09-11T18:49:01.667Z,97065.17
2017-09-11T18:51:30.069Z,97066.82
2017-09-11T18:53:59.173Z,97066.42
2017-09-11T18:56:27.522Z,97070.55
2017-09-11T18:58:55.865Z,97071.41
2017-09-11T19:01:24.229Z,97069.58
2017-09-11T19:03:53.365Z,97071.76
2017-09-11T19:06:21.727Z,97073.13
2017-09-11T19:08:51.746Z,97079.02
2017-09-11T19:11:20.082Z,97084.63
2017-09-11T19:13:48.474Z,97086.84
2017-09-11T19:16:18.825Z,97085.14
2017-09-11T19:18:47.198Z,97086.12
2017-09-11T19:21:15.544Z,97086.45
2017-09-11T19:23:45.180Z,97094.39
2017-09-11T19:26:13.537Z,97090.11
2017-09-11T19:28:41.878Z,97087.27
2017-09-11T19:31:10.606Z,97090.66
2017-09-11T19:33:38.959Z,97091.70
2017-09-11T19:36:07.398Z,97089.61
2017-09-11T19:38:36.320Z,97092.75
2017-09-11T19:41:04.681Z,97096.52
2017-09-11T19:43:33.039Z,97105.48
2017-09-11T19:46:01.375Z,97103.11
2017-09-11T19:48:29.875Z,97108.61
2017-09-11T19:50:59.022Z,97113.41
2017-09-11T19:53:27.662Z,97115.34
2017-09-11T19:55:56.759Z,97124.88
2017-09-11T19:58:25.089Z,97118.77
2017-09-11T20:00:54.318Z,97107.29
2017-09-11T20:03:22.650Z,97110.42
2017-09-11T20:05:51.044Z,97111.81
2017-09-11T20:08:19.457Z,97104.45
2017-09-11T20:10:47.808Z,97110.77
2017-09-11T20:13:16.138Z,97110.10
2017-09-11T20:15:44.453Z,97110.95
2017-09-11T20:18:12.839Z,97106.10
2017-09-11T20:20:41.179Z,97106.63
2017-09-11T20:23:09.664Z,97104.54
2017-09-11T20:25:38.017Z,97104.61
2017-09-11T20:28:07.145Z,97097.59
2017-09-11T20:30:35.495Z,97102.48
2017-09-11T20:33:03.820Z,97093.94
2017-09-11T20:35:33.020Z,97096.34
2017-09-11T20:38:01.368Z,97104.90
2017-09-11T20:40:29.714Z,97106.61
2017-09-11T20:42:58.048Z,97106.33
2017-09-11T20:45:26.722Z,97105.41
2017-09-11T20:47:55.052Z,97109.11
2017-09-11T20:50:23.400Z,97107.05
2017-09-11T20:52:52.497Z,97104.27
2017-09-11T20:55:20.825Z,97112.92
2017-09-11T20:57:49.146Z,97111.67
2017-09-11T21:00:17.454Z,97112.02
2017-09-11T21:02:45.807Z,97112.02
2017-09-11T21:05:15.197Z,97115.58
2017-09-11T21:07:43.594Z,97116.89
2017-09-11T21:10:11.975Z,97127.13
2017-09-11T21:12:41.378Z,97124.95
2017-09-11T21:15:10.226Z,97124.31
2017-09-11T21:17:39.026Z,97128.65
2017-09-11T21:20:08.310Z,97131.41
2017-09-11T21:22:37.001Z,97132.73
2017-09-11T21:25:05.967Z,97133.29
2017-09-11T21:27:35.133Z,97128.34
2017-09-11T21:30:04.221Z,97132.97
2017-09-11T21:32:33.368Z,97132.06
2017-09-11T21:35:02.385Z,97127.56
2017-09-11T21:37:31.494Z,97122.52
2017-09-11T21:40:01.088Z,97121.61
2017-09-11T21:42:30.032Z,97127.83
2017-09-11T21:44:58.883Z,97126.41
2017-09-11T21:47:27.970Z,97128.92
2017-09-11T21:49:58.127Z,97125.33
2017-09-11T21:52:26.956Z,97125.09
2017-09-11T21:54:55.807Z,97129.64
2017-09-11T21:57:24.500Z,97127.48
2017-09-11T21:59:53.237Z,97128.36
2017-09-11T22:02:22.052Z,97134.87
2017-09-11T22:04:51.760Z,97130.98
2017-09-11T22:07:20.926Z,97123.30
2017-09-11T22:09:49.740Z,97131.02
2017-09-11T22:12:18.874Z,97125.66
2017-09-11T22:14:47.641Z,97124.74
2017-09-11T22:17:17.502Z,97126.06
2017-09-11T22:19:45.812Z,97123.99
2017-09-11T22:22:14.131Z,97122.58
2017-09-11T22:24:42.459Z,97116.06
2017-09-11T22:27:10.767Z,97116.09
2017-09-11T22:29:39.894Z,97115.90
2017-09-11T22:32:08.212Z,97114.88
2017-09-11T22:34:37.277Z,97106.89
2017-09-11T22:37:05.613Z,97104.67
2017-09-11T22:39:34.803Z,97106.73
2017-09-11T22:42:03.214Z,97109.79
2017-09-11T22:44:31.571Z,97110.64
2017-09-11T22:47:00.705Z,97112.94
2017-09-11T22:49:29.025Z,97107.80
2017-09-11T22:51:57.728Z,97121.56
2017-09-11T22:54:26.036Z,97119.23
2017-09-11T22:56:54.375Z,97114.20
2017-09-11T22:59:22.725Z,97121.63
2017-09-11T23:01:51.154Z,97115.79
2017-09-11T23:04:20.255Z,97116.64
2017-09-11T23:06:48.577Z,97123.45
2017-09-11T23:09:16.932Z,97119.01
2017-09-11T23:11:45.254Z,97119.52
2017-09-11T23:14:13.583Z,97126.53
2017-09-11T23:16:42.075Z,97125.33
2017-09-11T23:19:10.403Z,97120.19
2017-09-11T23:21:38.743Z,97121.95
2017-09-11T23:24:07.052Z,97121.10
2017-09-11T23:26:35.402Z,97118.23
2017-09-11T23:29:03.726Z,97113.78
2017-09-11T23:31:32.058Z,97124.63
2017-09-11T23:34:00.412Z,97115.84
2017-09-11T23:36:29.501Z,97116.76
2017-09-11T23:38:58.609Z,97116.30
2017-09-11T23:41:26.953Z,97115.09
2017-09-11T23:43:55.332Z,97114.48
2017-09-11T23:46:23.655Z,97112.20
2017-09-11T23:48:52.003Z,97109.29
2017-09-11T23:51:20.341Z,97109.34
2017-09-11T23:53:48.674Z,97112.08
2017-09-11T23:56:17.782Z,97117.03
2017-09-11T23:58:46.105Z,97113.14
